sensor_id;sensor_type;location;lat;lon;timestamp;P1;durP1;ratioP1;P2;durP2;ratioP2
58512;SDS011;44302;47.914;10.642;2022-12-18T08:46:57;25.07;;;12.83;;
58512;SDS011;44302;47.914;10.642;2022-12-18T08:49:23;26.83;;;13.07;;
58512;SDS011;44302;47.914;10.642;2022-12-18T08:51:53;30.27;;;14.17;;
58512;SDS011;44302;47.914;10.642;2022-12-18T08:54:20;24.30;;;12.27;;
58512;SDS011;44302;47.914;10.642;2022-12-18T08:56:45;25.10;;;12.70;;
58512;SDS011;44302;47.914;10.642;2022-12-18T08:59:11;31.17;;;13.67;;
58512;SDS011;44302;47.914;10.642;2022-12-18T09:01:36;25.73;;;12.60;;
58512;SDS011;44302;47.914;10.642;2022-12-18T09:04:02;26.07;;;11.80;;
58512;SDS011;44302;47.914;10.642;2022-12-18T09:06:28;27.73;;;12.60;;
58512;SDS011;44302;47.914;10.642;2022-12-18T09:08:53;26.70;;;13.17;;
58512;SDS011;44302;47.914;10.642;2022-12-18T09:11:21;27.13;;;12.77;;
58512;SDS011;44302;47.914;10.642;2022-12-18T09:13:51;22.97;;;11.67;;
58512;SDS011;44302;47.914;10.642;2022-12-18T09:16:17;25.87;;;11.53;;
58512;SDS011;44302;47.914;10.642;2022-12-18T09:18:43;26.10;;;13.67;;
58512;SDS011;44302;47.914;10.642;2022-12-18T09:21:12;22.93;;;12.60;;
58512;SDS011;44302;47.914;10.642;2022-12-18T09:23:40;37.23;;;19.30;;
58512;SDS011;44302;47.914;10.642;2022-12-18T09:26:06;20.37;;;11.97;;
58512;SDS011;44302;47.914;10.642;2022-12-18T09:28:32;20.03;;;11.27;;
58512;SDS011;44302;47.914;10.642;2022-12-18T09:30:58;24.80;;;11.93;;
58512;SDS011;44302;47.914;10.642;2022-12-18T09:33:28;27.00;;;12.63;;
58512;SDS011;44302;47.914;10.642;2022-12-18T09:35:54;20.07;;;10.73;;
58512;SDS011;44302;47.914;10.642;2022-12-18T09:38:19;20.57;;;11.13;;
58512;SDS011;44302;47.914;10.642;2022-12-18T09:40:47;16.13;;;10.27;;
58512;SDS011;44302;47.914;10.642;2022-12-18T09:43:18;19.43;;;10.80;;
58512;SDS011;44302;47.914;10.642;2022-12-18T09:45:51;19.13;;;10.30;;
58512;SDS011;44302;47.914;10.642;2022-12-18T09:48:23;17.97;;;10.70;;
58512;SDS011;44302;47.914;10.642;2022-12-18T09:50:54;19.90;;;11.23;;
58512;SDS011;44302;47.914;10.642;2022-12-18T09:53:24;22.93;;;12.57;;
58512;SDS011;44302;47.914;10.642;2022-12-18T09:55:53;20.57;;;12.03;;
58512;SDS011;44302;47.914;10.642;2022-12-18T09:58:26;20.97;;;12.07;;
58512;SDS011;44302;47.914;10.642;2022-12-18T10:00:55;24.30;;;12.57;;
58512;SDS011;44302;47.914;10.642;2022-12-18T10:03:21;24.33;;;12.67;;
58512;SDS011;44302;47.914;10.642;2022-12-18T10:06:00;20.90;;;12.77;;
58512;SDS011;44302;47.914;10.642;2022-12-18T10:28:00;22.83;;;13.53;;
58512;SDS011;44302;47.914;10.642;2022-12-18T10:30:37;24.90;;;13.70;;
58512;SDS011;44302;47.914;10.642;2022-12-18T10:33:04;20.73;;;12.37;;
58512;SDS011;44302;47.914;10.642;2022-12-18T10:35:30;22.97;;;14.07;;
58512;SDS011;44302;47.914;10.642;2022-12-18T10:38:37;21.47;;;13.03;;
58512;SDS011;44302;47.914;10.642;2022-12-18T10:40:59;22.07;;;13.33;;
58512;SDS011;44302;47.914;10.642;2022-12-18T10:43:26;21.53;;;13.57;;
58512;SDS011;44302;47.914;10.642;2022-12-18T10:48:31;24.67;;;14.77;;
58512;SDS011;44302;47.914;10.642;2022-12-18T10:50:58;21.97;;;13.50;;
58512;SDS011;44302;47.914;10.642;2022-12-18T10:53:28;20.70;;;13.70;;
58512;SDS011;44302;47.914;10.642;2022-12-18T10:55:57;19.93;;;12.90;;
58512;SDS011;44302;47.914;10.642;2022-12-18T10:58:34;19.13;;;13.13;;
58512;SDS011;44302;47.914;10.642;2022-12-18T11:01:20;23.63;;;13.43;;
58512;SDS011;44302;47.914;10.642;2022-12-18T11:06:18;17.57;;;11.73;;
58512;SDS011;44302;47.914;10.642;2022-12-18T11:11:51;25.67;;;12.67;;
58512;SDS011;44302;47.914;10.642;2022-12-18T11:14:23;17.67;;;12.17;;
58512;SDS011;44302;47.914;10.642;2022-12-18T11:17:16;20.30;;;13.50;;
58512;SDS011;44302;47.914;10.642;2022-12-18T11:19:44;20.83;;;13.60;;
58512;SDS011;44302;47.914;10.642;2022-12-18T11:22:19;20.07;;;13.57;;
58512;SDS011;44302;47.914;10.642;2022-12-18T11:24:55;22.90;;;15.03;;
58512;SDS011;44302;47.914;10.642;2022-12-18T11:27:51;21.30;;;14.50;;
58512;SDS011;44302;47.914;10.642;2022-12-18T11:35:37;22.03;;;14.30;;
58512;SDS011;44302;47.914;10.642;2022-12-18T11:38:22;24.90;;;16.30;;
58512;SDS011;44302;47.914;10.642;2022-12-18T11:46:13;24.47;;;15.40;;
58512;SDS011;44302;47.914;10.642;2022-12-18T11:48:58;20.97;;;13.90;;
58512;SDS011;44302;47.914;10.642;2022-12-18T11:51:48;21.23;;;14.17;;
58512;SDS011;44302;47.914;10.642;2022-12-18T11:54:22;25.00;;;16.13;;
58512;SDS011;44302;47.914;10.642;2022-12-18T11:56:49;26.10;;;16.27;;
58512;SDS011;44302;47.914;10.642;2022-12-18T11:59:35;23.70;;;15.97;;
58512;SDS011;44302;47.914;10.642;2022-12-18T12:04:46;24.33;;;15.17;;
58512;SDS011;44302;47.914;10.642;2022-12-18T12:07:33;21.57;;;14.20;;
58512;SDS011;44302;47.914;10.642;2022-12-18T12:10:43;24.03;;;14.50;;
58512;SDS011;44302;47.914;10.642;2022-12-18T12:29:09;24.67;;;14.00;;
58512;SDS011;44302;47.914;10.642;2022-12-18T12:31:49;23.67;;;13.30;;
58512;SDS011;44302;47.914;10.642;2022-12-18T12:37:43;22.30;;;13.60;;
58512;SDS011;44302;47.914;10.642;2022-12-18T12:40:16;22.47;;;13.17;;
58512;SDS011;44302;47.914;10.642;2022-12-18T12:43:04;25.93;;;15.67;;
58512;SDS011;44302;47.914;10.642;2022-12-18T12:46:12;22.07;;;14.13;;
58512;SDS011;44302;47.914;10.642;2022-12-18T12:51:33;20.70;;;12.03;;
58512;SDS011;44302;47.914;10.642;2022-12-18T12:54:02;22.13;;;12.63;;
58512;SDS011;44302;47.914;10.642;2022-12-18T13:10:10;21.93;;;14.17;;
58512;SDS011;44302;47.914;10.642;2022-12-18T13:15:44;25.67;;;14.53;;
58512;SDS011;44302;47.914;10.642;2022-12-18T13:18:24;31.40;;;21.50;;
58512;SDS011;44302;47.914;10.642;2022-12-18T13:20:51;28.63;;;20.67;;
58512;SDS011;44302;47.914;10.642;2022-12-18T13:23:46;40.33;;;29.87;;
58512;SDS011;44302;47.914;10.642;2022-12-18T13:36:49;22.50;;;11.73;;
58512;SDS011;44302;47.914;10.642;2022-12-18T13:41:48;27.57;;;16.83;;
58512;SDS011;44302;47.914;10.642;2022-12-18T13:44:33;35.40;;;27.77;;
58512;SDS011;44302;47.914;10.642;2022-12-18T13:47:51;24.03;;;13.27;;
58512;SDS011;44302;47.914;10.642;2022-12-18T13:50:20;23.90;;;12.50;;
58512;SDS011;44302;47.914;10.642;2022-12-18T13:52:52;22.03;;;12.67;;
58512;SDS011;44302;47.914;10.642;2022-12-18T13:55:19;24.50;;;12.50;;
58512;SDS011;44302;47.914;10.642;2022-12-18T13:57:45;22.27;;;11.63;;
58512;SDS011;44302;47.914;10.642;2022-12-18T14:02:53;23.43;;;12.53;;
58512;SDS011;44302;47.914;10.642;2022-12-18T14:05:22;27.07;;;12.93;;
58512;SDS011;44302;47.914;10.642;2022-12-18T14:08:01;27.50;;;13.37;;
58512;SDS011;44302;47.914;10.642;2022-12-18T14:10:42;27.50;;;12.50;;
58512;SDS011;44302;47.914;10.642;2022-12-18T14:13:28;34.33;;;20.50;;
58512;SDS011;44302;47.914;10.642;2022-12-18T14:15:57;48.07;;;31.97;;
58512;SDS011;44302;47.914;10.642;2022-12-18T14:21:06;23.17;;;12.57;;
58512;SDS011;44302;47.914;10.642;2022-12-18T14:23:48;24.57;;;10.53;;
58512;SDS011;44302;47.914;10.642;2022-12-18T14:28:57;31.90;;;15.30;;
58512;SDS011;44302;47.914;10.642;2022-12-18T14:31:26;28.60;;;13.80;;
58512;SDS011;44302;47.914;10.642;2022-12-18T14:33:54;29.00;;;13.37;;
58512;SDS011;44302;47.914;10.642;2022-12-18T14:36:21;34.93;;;14.87;;
58512;SDS011;44302;47.914;10.642;2022-12-18T14:38:54;24.20;;;13.07;;
58512;SDS011;44302;47.914;10.642;2022-12-18T14:41:22;26.37;;;11.20;;
58512;SDS011;44302;47.914;10.642;2022-12-18T14:43:50;35.23;;;13.47;;
58512;SDS011;44302;47.914;10.642;2022-12-18T14:46:27;25.30;;;12.47;;
58512;SDS011;44302;47.914;10.642;2022-12-18T14:48:55;26.93;;;13.60;;
58512;SDS011;44302;47.914;10.642;2022-12-18T14:51:23;31.73;;;15.03;;
58512;SDS011;44302;47.914;10.642;2022-12-18T14:53:54;27.40;;;13.73;;
58512;SDS011;44302;47.914;10.642;2022-12-18T14:56:29;22.23;;;11.33;;
58512;SDS011;44302;47.914;10.642;2022-12-18T14:59:00;22.33;;;11.77;;
58512;SDS011;44302;47.914;10.642;2022-12-18T15:04:45;25.13;;;12.30;;
58512;SDS011;44302;47.914;10.642;2022-12-18T15:09:38;38.17;;;14.10;;
58512;SDS011;44302;47.914;10.642;2022-12-18T15:12:05;27.87;;;13.77;;
58512;SDS011;44302;47.914;10.642;2022-12-18T15:14:42;26.57;;;11.63;;
58512;SDS011;44302;47.914;10.642;2022-12-18T15:17:16;21.97;;;9.63;;
58512;SDS011;44302;47.914;10.642;2022-12-18T15:19:44;27.17;;;12.60;;
58512;SDS011;44302;47.914;10.642;2022-12-18T15:22:25;28.40;;;11.97;;
58512;SDS011;44302;47.914;10.642;2022-12-18T15:24:52;23.53;;;10.90;;
58512;SDS011;44302;47.914;10.642;2022-12-18T15:30:00;28.87;;;12.57;;
58512;SDS011;44302;47.914;10.642;2022-12-18T15:32:35;25.13;;;11.60;;
58512;SDS011;44302;47.914;10.642;2022-12-18T15:37:34;33.23;;;14.53;;
58512;SDS011;44302;47.914;10.642;2022-12-18T15:39:59;50.13;;;13.03;;
58512;SDS011;44302;47.914;10.642;2022-12-18T15:42:27;41.00;;;12.77;;
58512;SDS011;44302;47.914;10.642;2022-12-18T15:45:28;29.90;;;14.47;;
58512;SDS011;44302;47.914;10.642;2022-12-18T15:47:54;36.07;;;13.63;;
58512;SDS011;44302;47.914;10.642;2022-12-18T15:50:20;37.97;;;17.23;;
58512;SDS011;44302;47.914;10.642;2022-12-18T15:52:46;39.00;;;16.73;;
58512;SDS011;44302;47.914;10.642;2022-12-18T15:55:16;35.17;;;16.37;;
58512;SDS011;44302;47.914;10.642;2022-12-18T15:58:03;34.50;;;15.53;;
58512;SDS011;44302;47.914;10.642;2022-12-18T16:00:33;30.90;;;15.20;;
58512;SDS011;44302;47.914;10.642;2022-12-18T16:03:03;28.67;;;13.17;;
58512;SDS011;44302;47.914;10.642;2022-12-18T16:05:29;31.43;;;13.43;;
58512;SDS011;44302;47.914;10.642;2022-12-18T16:07:55;33.33;;;13.97;;
58512;SDS011;44302;47.914;10.642;2022-12-18T16:10:21;29.70;;;14.10;;
58512;SDS011;44302;47.914;10.642;2022-12-18T16:12:48;28.93;;;13.43;;
58512;SDS011;44302;47.914;10.642;2022-12-18T16:15:14;34.73;;;14.20;;
58512;SDS011;44302;47.914;10.642;2022-12-18T16:17:41;32.33;;;14.03;;
58512;SDS011;44302;47.914;10.642;2022-12-18T16:20:14;31.27;;;13.07;;
58512;SDS011;44302;47.914;10.642;2022-12-18T16:22:42;37.20;;;13.93;;
58512;SDS011;44302;47.914;10.642;2022-12-18T16:25:20;35.43;;;13.83;;
58512;SDS011;44302;47.914;10.642;2022-12-18T16:27:53;32.60;;;14.00;;
58512;SDS011;44302;47.914;10.642;2022-12-18T16:30:23;36.27;;;15.07;;
58512;SDS011;44302;47.914;10.642;2022-12-18T16:32:54;26.63;;;12.87;;
58512;SDS011;44302;47.914;10.642;2022-12-18T16:35:20;28.80;;;13.77;;
58512;SDS011;44302;47.914;10.642;2022-12-18T16:37:46;34.70;;;13.33;;
58512;SDS011;44302;47.914;10.642;2022-12-18T16:40:13;28.07;;;13.27;;
58512;SDS011;44302;47.914;10.642;2022-12-18T16:42:41;34.67;;;13.53;;
58512;SDS011;44302;47.914;10.642;2022-12-18T16:45:08;37.13;;;16.67;;
58512;SDS011;44302;47.914;10.642;2022-12-18T16:47:36;33.00;;;14.70;;
58512;SDS011;44302;47.914;10.642;2022-12-18T16:50:04;35.57;;;17.50;;
58512;SDS011;44302;47.914;10.642;2022-12-18T16:52:30;37.03;;;16.63;;
58512;SDS011;44302;47.914;10.642;2022-12-18T16:54:56;38.87;;;19.10;;
58512;SDS011;44302;47.914;10.642;2022-12-18T16:57:22;44.00;;;22.20;;
58512;SDS011;44302;47.914;10.642;2022-12-18T16:59:48;42.37;;;19.80;;
58512;SDS011;44302;47.914;10.642;2022-12-18T17:04:45;32.03;;;15.80;;
58512;SDS011;44302;47.914;10.642;2022-12-18T17:07:12;38.00;;;16.47;;
58512;SDS011;44302;47.914;10.642;2022-12-18T17:09:38;41.63;;;17.30;;
58512;SDS011;44302;47.914;10.642;2022-12-18T17:12:04;33.73;;;15.77;;
58512;SDS011;44302;47.914;10.642;2022-12-18T17:14:31;41.73;;;17.50;;
58512;SDS011;44302;47.914;10.642;2022-12-18T17:16:57;44.20;;;18.10;;
58512;SDS011;44302;47.914;10.642;2022-12-18T17:19:24;36.20;;;15.83;;
58512;SDS011;44302;47.914;10.642;2022-12-18T17:21:50;41.47;;;18.17;;
58512;SDS011;44302;47.914;10.642;2022-12-18T17:24:16;39.77;;;15.50;;
58512;SDS011;44302;47.914;10.642;2022-12-18T17:26:42;32.23;;;14.47;;
58512;SDS011;44302;47.914;10.642;2022-12-18T17:29:12;27.87;;;13.20;;
58512;SDS011;44302;47.914;10.642;2022-12-18T17:31:40;29.40;;;14.57;;
58512;SDS011;44302;47.914;10.642;2022-12-18T17:34:07;31.47;;;14.40;;
58512;SDS011;44302;47.914;10.642;2022-12-18T17:36:34;32.90;;;13.63;;
58512;SDS011;44302;47.914;10.642;2022-12-18T17:39:00;27.90;;;13.80;;
58512;SDS011;44302;47.914;10.642;2022-12-18T17:41:28;24.90;;;12.90;;
58512;SDS011;44302;47.914;10.642;2022-12-18T17:43:58;28.07;;;13.47;;
58512;SDS011;44302;47.914;10.642;2022-12-18T17:46:25;25.00;;;12.40;;
58512;SDS011;44302;47.914;10.642;2022-12-18T17:48:55;30.73;;;13.87;;
58512;SDS011;44302;47.914;10.642;2022-12-18T17:51:22;30.80;;;15.00;;
58512;SDS011;44302;47.914;10.642;2022-12-18T17:53:48;31.03;;;13.63;;
58512;SDS011;44302;47.914;10.642;2022-12-18T17:56:15;55.90;;;22.30;;
58512;SDS011;44302;47.914;10.642;2022-12-18T17:58:42;39.33;;;18.67;;
58512;SDS011;44302;47.914;10.642;2022-12-18T18:01:09;33.90;;;16.13;;
58512;SDS011;44302;47.914;10.642;2022-12-18T18:03:38;39.93;;;16.63;;
58512;SDS011;44302;47.914;10.642;2022-12-18T18:06:05;41.37;;;18.67;;
58512;SDS011;44302;47.914;10.642;2022-12-18T18:08:32;39.47;;;17.83;;
